sensor_id;sensor_type;location;lat;lon;timestamp;P1;durP1;ratioP1;P2;durP2;ratioP2
76675;SDS011;69204;55.350;36.906;2023-05-20T00:01:39;7.65;;;3.10;;
76675;SDS011;69204;55.350;36.906;2023-05-20T00:06:40;5.13;;;2.70;;
76675;SDS011;69204;55.350;36.906;2023-05-20T00:11:41;6.82;;;2.90;;
76675;SDS011;69204;55.350;36.906;2023-05-20T00:16:42;6.30;;;2.97;;
76675;SDS011;69204;55.350;36.906;2023-05-20T00:21:43;5.38;;;2.50;;
76675;SDS011;69204;55.350;36.906;2023-05-20T00:26:43;5.40;;;2.80;;
76675;SDS011;69204;55.350;36.906;2023-05-20T00:31:44;6.82;;;3.20;;
76675;SDS011;69204;55.350;36.906;2023-05-20T00:36:45;6.63;;;3.07;;
76675;SDS011;69204;55.350;36.906;2023-05-20T00:41:46;7.53;;;3.60;;
76675;SDS011;69204;55.350;36.906;2023-05-20T00:46:47;7.60;;;3.63;;
76675;SDS011;69204;55.350;36.906;2023-05-20T00:51:49;9.38;;;3.65;;
76675;SDS011;69204;55.350;36.906;2023-05-20T00:56:49;6.20;;;3.33;;
76675;SDS011;69204;55.350;36.906;2023-05-20T01:01:51;10.43;;;3.30;;
76675;SDS011;69204;55.350;36.906;2023-05-20T01:06:52;7.47;;;3.72;;
76675;SDS011;69204;55.350;36.906;2023-05-20T01:11:58;6.05;;;3.20;;
76675;SDS011;69204;55.350;36.906;2023-05-20T01:17:04;6.90;;;3.30;;
76675;SDS011;69204;55.350;36.906;2023-05-20T01:22:11;12.88;;;3.63;;
76675;SDS011;69204;55.350;36.906;2023-05-20T01:27:13;6.45;;;3.08;;
76675;SDS011;69204;55.350;36.906;2023-05-20T01:32:14;8.73;;;3.67;;
76675;SDS011;69204;55.350;36.906;2023-05-20T01:37:26;7.97;;;2.72;;
76675;SDS011;69204;55.350;36.906;2023-05-20T01:42:27;7.93;;;2.80;;
76675;SDS011;69204;55.350;36.906;2023-05-20T01:47:28;6.93;;;2.70;;
76675;SDS011;69204;55.350;36.906;2023-05-20T01:52:30;6.63;;;2.45;;
76675;SDS011;69204;55.350;36.906;2023-05-20T01:57:31;4.40;;;2.50;;
76675;SDS011;69204;55.350;36.906;2023-05-20T02:02:32;7.28;;;2.70;;
76675;SDS011;69204;55.350;36.906;2023-05-20T02:07:33;8.07;;;3.00;;
76675;SDS011;69204;55.350;36.906;2023-05-20T02:12:33;7.10;;;2.30;;
76675;SDS011;69204;55.350;36.906;2023-05-20T02:17:35;7.32;;;2.55;;
76675;SDS011;69204;55.350;36.906;2023-05-20T02:22:56;6.15;;;2.10;;
76675;SDS011;69204;55.350;36.906;2023-05-20T02:27:57;5.30;;;2.33;;
76675;SDS011;69204;55.350;36.906;2023-05-20T02:32:58;5.77;;;2.20;;
76675;SDS011;69204;55.350;36.906;2023-05-20T02:37:59;5.63;;;2.35;;
76675;SDS011;69204;55.350;36.906;2023-05-20T02:43:00;4.32;;;2.08;;
76675;SDS011;69204;55.350;36.906;2023-05-20T02:48:01;5.47;;;2.10;;
76675;SDS011;69204;55.350;36.906;2023-05-20T02:53:02;7.60;;;2.50;;
76675;SDS011;69204;55.350;36.906;2023-05-20T02:58:03;6.40;;;2.17;;
76675;SDS011;69204;55.350;36.906;2023-05-20T03:03:03;6.55;;;2.30;;
76675;SDS011;69204;55.350;36.906;2023-05-20T03:08:05;6.67;;;3.30;;
76675;SDS011;69204;55.350;36.906;2023-05-20T03:13:08;5.60;;;2.00;;
76675;SDS011;69204;55.350;36.906;2023-05-20T03:18:10;4.27;;;1.90;;
76675;SDS011;69204;55.350;36.906;2023-05-20T03:23:12;4.93;;;2.17;;
76675;SDS011;69204;55.350;36.906;2023-05-20T03:28:13;9.60;;;2.00;;
76675;SDS011;69204;55.350;36.906;2023-05-20T03:33:14;5.78;;;2.72;;
76675;SDS011;69204;55.350;36.906;2023-05-20T03:38:16;5.65;;;1.70;;
76675;SDS011;69204;55.350;36.906;2023-05-20T03:43:16;5.53;;;2.20;;
76675;SDS011;69204;55.350;36.906;2023-05-20T03:48:17;5.40;;;1.83;;
76675;SDS011;69204;55.350;36.906;2023-05-20T03:53:19;4.23;;;1.90;;
76675;SDS011;69204;55.350;36.906;2023-05-20T03:58:20;4.40;;;1.88;;
76675;SDS011;69204;55.350;36.906;2023-05-20T04:03:21;4.97;;;2.07;;
76675;SDS011;69204;55.350;36.906;2023-05-20T04:08:22;4.32;;;2.08;;
76675;SDS011;69204;55.350;36.906;2023-05-20T04:13:25;5.55;;;2.03;;
76675;SDS011;69204;55.350;36.906;2023-05-20T04:18:26;4.20;;;2.10;;
76675;SDS011;69204;55.350;36.906;2023-05-20T04:23:31;4.20;;;2.20;;
76675;SDS011;69204;55.350;36.906;2023-05-20T04:28:32;5.30;;;2.20;;
76675;SDS011;69204;55.350;36.906;2023-05-20T04:33:33;6.30;;;2.25;;
76675;SDS011;69204;55.350;36.906;2023-05-20T04:38:37;5.35;;;2.25;;
76675;SDS011;69204;55.350;36.906;2023-05-20T04:43:39;5.50;;;2.27;;
76675;SDS011;69204;55.350;36.906;2023-05-20T04:48:40;4.85;;;2.28;;
76675;SDS011;69204;55.350;36.906;2023-05-20T04:53:41;6.13;;;2.20;;
76675;SDS011;69204;55.350;36.906;2023-05-20T04:58:42;4.45;;;2.13;;
76675;SDS011;69204;55.350;36.906;2023-05-20T05:03:43;5.07;;;2.40;;
76675;SDS011;69204;55.350;36.906;2023-05-20T05:08:44;5.47;;;2.85;;
76675;SDS011;69204;55.350;36.906;2023-05-20T05:13:45;4.90;;;2.60;;
76675;SDS011;69204;55.350;36.906;2023-05-20T05:18:46;4.47;;;2.30;;
76675;SDS011;69204;55.350;36.906;2023-05-20T05:23:47;3.60;;;2.00;;
76675;SDS011;69204;55.350;36.906;2023-05-20T05:28:48;4.25;;;2.33;;
76675;SDS011;69204;55.350;36.906;2023-05-20T05:33:49;4.17;;;1.90;;
76675;SDS011;69204;55.350;36.906;2023-05-20T05:38:50;4.68;;;2.30;;
76675;SDS011;69204;55.350;36.906;2023-05-20T05:43:51;6.50;;;2.10;;
76675;SDS011;69204;55.350;36.906;2023-05-20T05:48:51;6.83;;;1.90;;
76675;SDS011;69204;55.350;36.906;2023-05-20T05:53:52;3.40;;;1.70;;
76675;SDS011;69204;55.350;36.906;2023-05-20T05:58:53;3.83;;;1.87;;
76675;SDS011;69204;55.350;36.906;2023-05-20T06:03:54;5.03;;;1.90;;
76675;SDS011;69204;55.350;36.906;2023-05-20T06:08:55;5.53;;;2.07;;
76675;SDS011;69204;55.350;36.906;2023-05-20T06:13:57;3.60;;;2.05;;
76675;SDS011;69204;55.350;36.906;2023-05-20T06:18:59;4.07;;;2.27;;
76675;SDS011;69204;55.350;36.906;2023-05-20T06:24:00;3.95;;;2.03;;
76675;SDS011;69204;55.350;36.906;2023-05-20T06:29:02;4.07;;;1.85;;
76675;SDS011;69204;55.350;36.906;2023-05-20T06:34:03;6.10;;;1.93;;
76675;SDS011;69204;55.350;36.906;2023-05-20T06:39:04;4.28;;;1.90;;
76675;SDS011;69204;55.350;36.906;2023-05-20T06:44:10;4.03;;;2.10;;
76675;SDS011;69204;55.350;36.906;2023-05-20T06:49:11;8.48;;;2.47;;
76675;SDS011;69204;55.350;36.906;2023-05-20T06:54:12;5.73;;;2.10;;
76675;SDS011;69204;55.350;36.906;2023-05-20T06:59:14;9.68;;;2.42;;
76675;SDS011;69204;55.350;36.906;2023-05-20T07:04:15;4.93;;;2.20;;
76675;SDS011;69204;55.350;36.906;2023-05-20T07:09:16;6.47;;;3.50;;
76675;SDS011;69204;55.350;36.906;2023-05-20T07:14:17;5.50;;;2.80;;
76675;SDS011;69204;55.350;36.906;2023-05-20T07:19:18;5.78;;;3.75;;
76675;SDS011;69204;55.350;36.906;2023-05-20T07:24:19;4.68;;;2.30;;
76675;SDS011;69204;55.350;36.906;2023-05-20T07:29:20;5.60;;;2.73;;
76675;SDS011;69204;55.350;36.906;2023-05-20T07:34:20;4.63;;;2.42;;
76675;SDS011;69204;55.350;36.906;2023-05-20T07:39:22;6.50;;;2.20;;
76675;SDS011;69204;55.350;36.906;2023-05-20T07:44:23;5.82;;;2.30;;
76675;SDS011;69204;55.350;36.906;2023-05-20T07:49:24;5.80;;;2.30;;
76675;SDS011;69204;55.350;36.906;2023-05-20T07:54:25;3.53;;;2.00;;
76675;SDS011;69204;55.350;36.906;2023-05-20T07:59:27;4.70;;;2.10;;
76675;SDS011;69204;55.350;36.906;2023-05-20T08:04:27;4.33;;;2.20;;
76675;SDS011;69204;55.350;36.906;2023-05-20T08:09:29;4.47;;;2.00;;
76675;SDS011;69204;55.350;36.906;2023-05-20T08:14:31;4.53;;;2.07;;
76675;SDS011;69204;55.350;36.906;2023-05-20T08:19:31;5.25;;;1.70;;
76675;SDS011;69204;55.350;36.906;2023-05-20T08:24:32;6.83;;;1.73;;
76675;SDS011;69204;55.350;36.906;2023-05-20T08:29:33;4.25;;;1.95;;
76675;SDS011;69204;55.350;36.906;2023-05-20T08:34:34;5.07;;;1.90;;
76675;SDS011;69204;55.350;36.906;2023-05-20T08:39:36;5.53;;;2.10;;
76675;SDS011;69204;55.350;36.906;2023-05-20T08:44:36;6.38;;;2.13;;
76675;SDS011;69204;55.350;36.906;2023-05-20T08:49:37;5.23;;;2.33;;
76675;SDS011;69204;55.350;36.906;2023-05-20T08:54:45;3.53;;;1.95;;
76675;SDS011;69204;55.350;36.906;2023-05-20T09:15:45;5.07;;;2.25;;
76675;SDS011;69204;55.350;36.906;2023-05-20T09:20:47;6.73;;;2.70;;
76675;SDS011;69204;55.350;36.906;2023-05-20T09:25:50;5.55;;;2.60;;
76675;SDS011;69204;55.350;36.906;2023-05-20T09:31:00;5.67;;;2.30;;
76675;SDS011;69204;55.350;36.906;2023-05-20T09:36:06;7.80;;;2.33;;
76675;SDS011;69204;55.350;36.906;2023-05-20T09:41:11;7.43;;;2.28;;
76675;SDS011;69204;55.350;36.906;2023-05-20T09:46:13;5.60;;;2.50;;
76675;SDS011;69204;55.350;36.906;2023-05-20T09:51:14;5.60;;;2.70;;
76675;SDS011;69204;55.350;36.906;2023-05-20T09:56:16;4.63;;;3.27;;
76675;SDS011;69204;55.350;36.906;2023-05-20T10:01:18;6.90;;;2.10;;
76675;SDS011;69204;55.350;36.906;2023-05-20T10:17:06;4.95;;;2.15;;
76675;SDS011;69204;55.350;36.906;2023-05-20T10:22:25;6.87;;;2.17;;
76675;SDS011;69204;55.350;36.906;2023-05-20T10:27:42;7.63;;;3.22;;
76675;SDS011;69204;55.350;36.906;2023-05-20T10:32:48;6.05;;;2.58;;
76675;SDS011;69204;55.350;36.906;2023-05-20T10:37:53;7.07;;;2.63;;
76675;SDS011;69204;55.350;36.906;2023-05-20T10:48:44;11.40;;;5.60;;
76675;SDS011;69204;55.350;36.906;2023-05-20T10:53:46;6.07;;;2.65;;
76675;SDS011;69204;55.350;36.906;2023-05-20T10:58:47;7.05;;;3.10;;
76675;SDS011;69204;55.350;36.906;2023-05-20T11:03:48;7.70;;;4.10;;
76675;SDS011;69204;55.350;36.906;2023-05-20T11:08:49;7.15;;;2.72;;
76675;SDS011;69204;55.350;36.906;2023-05-20T11:13:50;5.80;;;2.70;;
76675;SDS011;69204;55.350;36.906;2023-05-20T11:18:52;5.68;;;2.67;;
76675;SDS011;69204;55.350;36.906;2023-05-20T11:23:53;6.27;;;2.93;;
76675;SDS011;69204;55.350;36.906;2023-05-20T11:28:54;5.63;;;2.42;;
76675;SDS011;69204;55.350;36.906;2023-05-20T11:33:58;4.87;;;2.80;;
76675;SDS011;69204;55.350;36.906;2023-05-20T11:39:00;18.73;;;8.18;;
76675;SDS011;69204;55.350;36.906;2023-05-20T11:44:02;11.02;;;4.30;;
76675;SDS011;69204;55.350;36.906;2023-05-20T11:49:05;6.40;;;3.10;;
76675;SDS011;69204;55.350;36.906;2023-05-20T11:54:08;8.00;;;3.28;;
76675;SDS011;69204;55.350;36.906;2023-05-20T11:59:09;8.13;;;2.47;;
76675;SDS011;69204;55.350;36.906;2023-05-20T12:04:11;7.15;;;2.40;;
76675;SDS011;69204;55.350;36.906;2023-05-20T12:09:15;4.85;;;2.42;;
76675;SDS011;69204;55.350;36.906;2023-05-20T12:14:16;5.20;;;2.30;;
76675;SDS011;69204;55.350;36.906;2023-05-20T12:19:17;5.50;;;2.30;;
76675;SDS011;69204;55.350;36.906;2023-05-20T12:24:18;9.40;;;2.90;;
76675;SDS011;69204;55.350;36.906;2023-05-20T12:29:18;4.57;;;1.93;;
76675;SDS011;69204;55.350;36.906;2023-05-20T12:34:19;8.73;;;2.40;;
76675;SDS011;69204;55.350;36.906;2023-05-20T12:39:20;10.80;;;4.88;;
76675;SDS011;69204;55.350;36.906;2023-05-20T12:44:21;5.00;;;2.40;;
76675;SDS011;69204;55.350;36.906;2023-05-20T12:49:22;5.47;;;2.58;;
76675;SDS011;69204;55.350;36.906;2023-05-20T12:54:23;7.60;;;2.50;;
76675;SDS011;69204;55.350;36.906;2023-05-20T12:59:27;12.40;;;4.90;;
76675;SDS011;69204;55.350;36.906;2023-05-20T13:04:28;7.73;;;3.20;;
76675;SDS011;69204;55.350;36.906;2023-05-20T13:09:29;4.95;;;2.50;;
76675;SDS011;69204;55.350;36.906;2023-05-20T13:14:32;5.25;;;2.53;;
76675;SDS011;69204;55.350;36.906;2023-05-20T13:19:32;9.47;;;2.57;;
76675;SDS011;69204;55.350;36.906;2023-05-20T13:24:33;10.23;;;3.45;;
76675;SDS011;69204;55.350;36.906;2023-05-20T13:29:35;12.23;;;4.53;;
76675;SDS011;69204;55.350;36.906;2023-05-20T13:34:35;5.55;;;2.40;;
76675;SDS011;69204;55.350;36.906;2023-05-20T13:39:38;11.30;;;2.67;;
76675;SDS011;69204;55.350;36.906;2023-05-20T13:44:39;8.63;;;3.70;;
76675;SDS011;69204;55.350;36.906;2023-05-20T13:49:39;8.23;;;2.60;;
76675;SDS011;69204;55.350;36.906;2023-05-20T13:54:40;7.25;;;3.33;;
76675;SDS011;69204;55.350;36.906;2023-05-20T13:59:43;11.85;;;6.13;;
76675;SDS011;69204;55.350;36.906;2023-05-20T14:04:45;18.70;;;9.00;;
76675;SDS011;69204;55.350;36.906;2023-05-20T14:09:46;8.55;;;4.30;;
76675;SDS011;69204;55.350;36.906;2023-05-20T14:14:47;9.83;;;4.90;;
76675;SDS011;69204;55.350;36.906;2023-05-20T14:19:48;10.90;;;4.85;;
76675;SDS011;69204;55.350;36.906;2023-05-20T14:24:49;9.33;;;4.10;;
76675;SDS011;69204;55.350;36.906;2023-05-20T14:29:50;17.38;;;8.02;;
76675;SDS011;69204;55.350;36.906;2023-05-20T14:34:50;13.70;;;6.93;;
76675;SDS011;69204;55.350;36.906;2023-05-20T14:39:53;8.95;;;5.20;;
76675;SDS011;69204;55.350;36.906;2023-05-20T14:44:54;12.50;;;4.95;;
76675;SDS011;69204;55.350;36.906;2023-05-20T14:49:55;5.93;;;3.10;;
76675;SDS011;69204;55.350;36.906;2023-05-20T14:54:56;7.15;;;3.70;;
76675;SDS011;69204;55.350;36.906;2023-05-20T14:59:57;10.17;;;3.73;;
76675;SDS011;69204;55.350;36.906;2023-05-20T15:04:58;5.60;;;3.13;;
76675;SDS011;69204;55.350;36.906;2023-05-20T15:09:58;6.97;;;3.07;;
76675;SDS011;69204;55.350;36.906;2023-05-20T15:14:59;12.90;;;6.43;;
76675;SDS011;69204;55.350;36.906;2023-05-20T15:20:01;10.35;;;3.80;;
76675;SDS011;69204;55.350;36.906;2023-05-20T15:25:04;7.82;;;2.60;;
76675;SDS011;69204;55.350;36.906;2023-05-20T15:30:05;10.07;;;3.53;;
76675;SDS011;69204;55.350;36.906;2023-05-20T15:35:07;6.72;;;2.45;;
76675;SDS011;69204;55.350;36.906;2023-05-20T15:40:11;8.93;;;4.30;;
76675;SDS011;69204;55.350;36.906;2023-05-20T15:45:13;8.40;;;3.50;;
76675;SDS011;69204;55.350;36.906;2023-05-20T15:50:14;9.73;;;3.35;;
76675;SDS011;69204;55.350;36.906;2023-05-20T15:55:15;7.93;;;3.63;;
76675;SDS011;69204;55.350;36.906;2023-05-20T16:00:17;5.82;;;3.17;;
76675;SDS011;69204;55.350;36.906;2023-05-20T16:05:19;8.60;;;4.43;;
76675;SDS011;69204;55.350;36.906;2023-05-20T16:10:23;5.85;;;3.50;;
76675;SDS011;69204;55.350;36.906;2023-05-20T16:15:25;14.53;;;3.53;;
76675;SDS011;69204;55.350;36.906;2023-05-20T16:20:26;10.68;;;5.28;;
76675;SDS011;69204;55.350;36.906;2023-05-20T16:25:27;13.75;;;5.10;;
76675;SDS011;69204;55.350;36.906;2023-05-20T16:30:28;5.57;;;2.60;;
76675;SDS011;69204;55.350;36.906;2023-05-20T16:35:29;12.65;;;6.63;;
76675;SDS011;69204;55.350;36.906;2023-05-20T16:40:30;12.53;;;7.50;;
76675;SDS011;69204;55.350;36.906;2023-05-20T16:45:31;10.90;;;5.47;;
76675;SDS011;69204;55.350;36.906;2023-05-20T16:50:31;9.17;;;3.13;;
76675;SDS011;69204;55.350;36.906;2023-05-20T16:55:32;12.25;;;3.85;;
76675;SDS011;69204;55.350;36.906;2023-05-20T17:00:33;5.67;;;3.30;;
76675;SDS011;69204;55.350;36.906;2023-05-20T17:05:34;49.90;;;33.83;;
76675;SDS011;69204;55.350;36.906;2023-05-20T17:10:35;46.80;;;32.13;;
76675;SDS011;69204;55.350;36.906;2023-05-20T17:15:36;30.60;;;16.52;;
76675;SDS011;69204;55.350;36.906;2023-05-20T17:20:36;20.13;;;9.97;;
76675;SDS011;69204;55.350;36.906;2023-05-20T17:25:37;16.55;;;6.53;;
76675;SDS011;69204;55.350;36.906;2023-05-20T17:30:38;11.63;;;5.60;;
76675;SDS011;69204;55.350;36.906;2023-05-20T17:35:39;14.07;;;5.40;;
76675;SDS011;69204;55.350;36.906;2023-05-20T17:40:40;16.73;;;6.57;;
76675;SDS011;69204;55.350;36.906;2023-05-20T17:45:41;12.63;;;7.00;;
76675;SDS011;69204;55.350;36.906;2023-05-20T17:50:42;15.17;;;5.10;;
76675;SDS011;69204;55.350;36.906;2023-05-20T17:55:43;12.52;;;6.68;;
76675;SDS011;69204;55.350;36.906;2023-05-20T18:00:46;13.98;;;6.07;;
76675;SDS011;69204;55.350;36.906;2023-05-20T18:05:47;18.47;;;9.77;;
76675;SDS011;69204;55.350;36.906;2023-05-20T18:10:48;11.82;;;6.68;;
76675;SDS011;69204;55.350;36.906;2023-05-20T18:15:49;13.77;;;6.60;;
76675;SDS011;69204;55.350;36.906;2023-05-20T18:20:51;11.32;;;6.28;;
76675;SDS011;69204;55.350;36.906;2023-05-20T18:25:52;17.37;;;8.70;;
76675;SDS011;69204;55.350;36.906;2023-05-20T18:30:53;19.42;;;9.45;;
76675;SDS011;69204;55.350;36.906;2023-05-20T18:35:54;12.53;;;6.30;;
76675;SDS011;69204;55.350;36.906;2023-05-20T18:40:56;10.50;;;5.13;;
76675;SDS011;69204;55.350;36.906;2023-05-20T18:45:56;8.95;;;4.90;;
76675;SDS011;69204;55.350;36.906;2023-05-20T18:50:58;8.63;;;4.70;;
76675;SDS011;69204;55.350;36.906;2023-05-20T18:55:58;10.18;;;5.05;;
76675;SDS011;69204;55.350;36.906;2023-05-20T19:01:02;10.57;;;4.23;;
76675;SDS011;69204;55.350;36.906;2023-05-20T19:06:03;14.38;;;5.90;;
76675;SDS011;69204;55.350;36.906;2023-05-20T19:11:05;14.90;;;7.28;;
76675;SDS011;69204;55.350;36.906;2023-05-20T19:16:06;10.27;;;5.10;;
76675;SDS011;69204;55.350;36.906;2023-05-20T19:21:07;33.50;;;15.27;;
76675;SDS011;69204;55.350;36.906;2023-05-20T19:26:08;27.07;;;12.37;;
76675;SDS011;69204;55.350;36.906;2023-05-20T19:31:10;19.50;;;8.43;;
76675;SDS011;69204;55.350;36.906;2023-05-20T19:36:11;11.27;;;5.50;;
76675;SDS011;69204;55.350;36.906;2023-05-20T19:41:12;8.30;;;4.17;;
76675;SDS011;69204;55.350;36.906;2023-05-20T19:46:14;7.72;;;3.88;;
76675;SDS011;69204;55.350;36.906;2023-05-20T19:51:15;10.77;;;4.50;;
76675;SDS011;69204;55.350;36.906;2023-05-20T19:56:16;7.88;;;4.18;;
76675;SDS011;69204;55.350;36.906;2023-05-20T20:01:19;9.48;;;4.35;;
76675;SDS011;69204;55.350;36.906;2023-05-20T20:06:20;8.33;;;4.23;;
76675;SDS011;69204;55.350;36.906;2023-05-20T20:11:21;8.38;;;4.45;;
76675;SDS011;69204;55.350;36.906;2023-05-20T20:16:23;7.47;;;4.23;;
76675;SDS011;69204;55.350;36.906;2023-05-20T20:21:23;9.07;;;4.07;;
76675;SDS011;69204;55.350;36.906;2023-05-20T20:26:25;7.60;;;3.80;;
76675;SDS011;69204;55.350;36.906;2023-05-20T20:31:26;7.22;;;4.00;;
76675;SDS011;69204;55.350;36.906;2023-05-20T20:36:27;8.40;;;4.70;;
76675;SDS011;69204;55.350;36.906;2023-05-20T20:41:31;8.77;;;4.90;;
76675;SDS011;69204;55.350;36.906;2023-05-20T20:46:32;8.40;;;5.50;;
76675;SDS011;69204;55.350;36.906;2023-05-20T20:51:33;10.43;;;5.57;;
76675;SDS011;69204;55.350;36.906;2023-05-20T20:56:34;12.73;;;5.88;;
76675;SDS011;69204;55.350;36.906;2023-05-20T21:01:36;12.20;;;6.03;;
76675;SDS011;69204;55.350;36.906;2023-05-20T21:06:41;11.02;;;5.50;;
76675;SDS011;69204;55.350;36.906;2023-05-20T21:11:42;11.43;;;6.00;;
76675;SDS011;69204;55.350;36.906;2023-05-20T21:16:44;10.38;;;6.55;;
76675;SDS011;69204;55.350;36.906;2023-05-20T21:21:45;9.57;;;6.13;;
76675;SDS011;69204;55.350;36.906;2023-05-20T21:26:46;11.63;;;6.25;;
76675;SDS011;69204;55.350;36.906;2023-05-20T21:31:47;9.77;;;6.13;;
76675;SDS011;69204;55.350;36.906;2023-05-20T21:36:47;11.95;;;6.75;;
76675;SDS011;69204;55.350;36.906;2023-05-20T21:41:48;12.30;;;6.63;;
76675;SDS011;69204;55.350;36.906;2023-05-20T21:46:49;11.05;;;6.65;;
76675;SDS011;69204;55.350;36.906;2023-05-20T21:51:50;10.20;;;6.67;;
76675;SDS011;69204;55.350;36.906;2023-05-20T21:56:51;18.30;;;7.20;;
76675;SDS011;69204;55.350;36.906;2023-05-20T22:01:52;14.50;;;8.23;;
76675;SDS011;69204;55.350;36.906;2023-05-20T22:06:53;15.55;;;8.27;;
76675;SDS011;69204;55.350;36.906;2023-05-20T22:11:55;22.13;;;8.90;;
76675;SDS011;69204;55.350;36.906;2023-05-20T22:16:56;18.20;;;8.27;;
76675;SDS011;69204;55.350;36.906;2023-05-20T22:21:57;14.68;;;8.85;;
76675;SDS011;69204;55.350;36.906;2023-05-20T22:26:58;14.43;;;8.33;;
76675;SDS011;69204;55.350;36.906;2023-05-20T22:31:59;14.50;;;8.68;;
76675;SDS011;69204;55.350;36.906;2023-05-20T22:37:00;16.47;;;9.77;;
76675;SDS011;69204;55.350;36.906;2023-05-20T22:42:02;22.27;;;9.43;;
76675;SDS011;69204;55.350;36.906;2023-05-20T22:47:03;16.58;;;8.80;;
76675;SDS011;69204;55.350;36.906;2023-05-20T22:52:04;14.38;;;8.27;;
76675;SDS011;69204;55.350;36.906;2023-05-20T22:57:07;15.52;;;8.15;;
76675;SDS011;69204;55.350;36.906;2023-05-20T23:02:08;15.07;;;8.20;;
76675;SDS011;69204;55.350;36.906;2023-05-20T23:07:09;18.13;;;7.88;;
76675;SDS011;69204;55.350;36.906;2023-05-20T23:12:14;14.33;;;8.20;;
76675;SDS011;69204;55.350;36.906;2023-05-20T23:17:15;12.63;;;7.32;;
76675;SDS011;69204;55.350;36.906;2023-05-20T23:22:16;17.20;;;8.27;;
76675;SDS011;69204;55.350;36.906;2023-05-20T23:27:17;17.55;;;7.85;;
76675;SDS011;69204;55.350;36.906;2023-05-20T23:32:18;13.90;;;8.30;;
76675;SDS011;69204;55.350;36.906;2023-05-20T23:37:19;16.73;;;9.02;;
76675;SDS011;69204;55.350;36.906;2023-05-20T23:42:20;13.30;;;7.83;;
76675;SDS011;69204;55.350;36.906;2023-05-20T23:47:21;15.45;;;8.30;;
76675;SDS011;69204;55.350;36.906;2023-05-20T23:52:25;15.07;;;8.20;;
76675;SDS011;69204;55.350;36.906;2023-05-20T23:57:26;16.23;;;8.50;;
